Time;durP1;ratioP1;P1;durP2;ratioP2;P2;SDS_P1;SDS_P2;PMS_P1;PMS_P2;Temp;Humidity;BMP_temperature;BMP_pressure;BME280_temperature;BME280_humidity;BME280_pressure;Samples;Min_cycle;Max_cycle;Signal;HPM_P1;HPM_P2
2023/03/16 00:02:17;;;;;;;8.73;6.93;;;-0.20;99.90;;;;;;5024831;28;20188;-74
2023/03/16 00:04:46;;;;;;;10.57;6.10;;;-0.30;99.90;;;;;;5027279;28;20189;-74
2023/03/16 00:07:12;;;;;;;7.20;6.43;;;-0.40;99.90;;;;;;5022826;28;20189;-73
2023/03/16 00:09:40;;;;;;;6.73;5.93;;;-0.40;99.90;;;;;;5036211;28;20617;-75
2023/03/16 00:12:14;;;;;;;7.97;6.87;;;-0.40;99.90;;;;;;5028316;28;20200;-73
2023/03/16 00:14:45;;;;;;;6.40;5.80;;;-0.40;99.90;;;;;;5021743;28;20180;-73
2023/03/16 00:17:18;;;;;;;7.30;6.53;;;-0.50;99.90;;;;;;5024614;28;20303;-75
2023/03/16 00:19:56;;;;;;;7.27;6.47;;;-0.50;99.90;;;;;;5028594;28;20208;-74
2023/03/16 00:22:28;;;;;;;7.07;6.37;;;-0.50;99.90;;;;;;5028122;28;20207;-75
2023/03/16 00:24:54;;;;;;;8.13;6.83;;;-0.50;99.90;;;;;;5023585;28;20318;-74
2023/03/16 00:27:21;;;;;;;7.17;6.47;;;-0.60;99.90;;;;;;5025439;28;20222;-74
2023/03/16 00:29:48;;;;;;;8.23;6.93;;;-0.60;99.90;;;;;;5020754;28;20319;-74
2023/03/16 00:32:16;;;;;;;7.17;6.43;;;-0.60;99.90;;;;;;5026738;28;20271;-74
2023/03/16 00:34:45;;;;;;;7.77;6.00;;;-0.60;99.90;;;;;;5030968;28;20798;-74
2023/03/16 00:37:14;;;;;;;7.13;6.47;;;-0.60;99.90;;;;;;5024957;28;20315;-73
2023/03/16 00:39:40;;;;;;;7.03;5.67;;;-0.60;99.90;;;;;;5025040;28;20185;-73
2023/03/16 00:42:08;;;;;;;6.67;6.07;;;-0.70;99.90;;;;;;5027226;28;20188;-74
2023/03/16 00:44:34;;;;;;;8.37;6.90;;;-0.80;99.90;;;;;;5029338;28;20198;-74
2023/03/16 00:47:00;;;;;;;8.23;7.40;;;-0.80;99.90;;;;;;5028904;28;20181;-74
2023/03/16 00:49:26;;;;;;;8.33;7.60;;;-0.80;99.90;;;;;;5022894;28;20187;-74
2023/03/16 00:51:51;;;;;;;9.37;7.93;;;-0.80;99.90;;;;;;5022072;28;20224;-74
2023/03/16 00:54:17;;;;;;;8.03;6.90;;;-0.80;99.90;;;;;;5027121;28;20192;-74
2023/03/16 00:56:42;;;;;;;7.67;6.97;;;-0.80;99.90;;;;;;5020418;28;20185;-74
2023/03/16 00:59:08;;;;;;;11.00;9.23;;;-0.80;99.90;;;;;;5032004;28;20180;-74
2023/03/16 01:01:34;;;;;;;10.07;8.17;;;-0.70;99.90;;;;;;5026787;28;20205;-73
2023/03/16 01:04:00;;;;;;;13.53;8.47;;;-0.70;99.90;;;;;;5025417;28;20661;-75
2023/03/16 01:06:26;;;;;;;10.00;8.83;;;-0.70;99.90;;;;;;5026413;28;20187;-74
2023/03/16 01:08:51;;;;;;;10.70;8.93;;;-0.60;99.90;;;;;;5024666;28;20708;-74
2023/03/16 01:11:21;;;;;;;13.70;10.40;;;-0.40;99.90;;;;;;5024300;28;20213;-74
2023/03/16 01:13:49;;;;;;;10.97;8.93;;;-0.40;99.90;;;;;;5026626;28;20710;-73
2023/03/16 01:16:17;;;;;;;12.23;9.37;;;-0.30;99.90;;;;;;5022007;28;20601;-75
2023/03/16 01:18:43;;;;;;;12.87;9.23;;;-0.20;99.90;;;;;;5017633;28;20556;-73
2023/03/16 01:21:12;;;;;;;11.53;9.53;;;-0.10;99.90;;;;;;5024272;28;20207;-73
2023/03/16 01:23:38;;;;;;;14.13;10.27;;;0.00;99.90;;;;;;5015604;28;20181;-74
2023/03/16 01:26:06;;;;;;;13.73;10.13;;;0.00;99.90;;;;;;5027646;28;20187;-74
2023/03/16 01:28:33;;;;;;;13.27;10.63;;;0.20;99.90;;;;;;5024771;28;20184;-76
2023/03/16 01:31:05;;;;;;;11.63;9.73;;;0.20;99.90;;;;;;5018792;28;20204;-72
2023/03/16 01:33:31;;;;;;;16.07;10.70;;;0.30;99.90;;;;;;5027205;28;20207;-74
2023/03/16 01:35:58;;;;;;;12.43;10.03;;;0.20;99.90;;;;;;5023386;28;20239;-74
2023/03/16 01:38:25;;;;;;;13.73;10.13;;;0.30;99.90;;;;;;5023986;28;20652;-74
2023/03/16 01:40:52;;;;;;;14.57;10.03;;;0.30;99.90;;;;;;5028179;28;20204;-74
2023/03/16 01:43:20;;;;;;;11.77;9.37;;;0.40;99.90;;;;;;5020094;28;20681;-73
2023/03/16 01:46:17;;;;;;;12.03;10.30;;;0.40;99.90;;;;;;5022634;28;20544;-74
2023/03/16 01:49:01;;;;;;;9.40;8.27;;;0.50;99.90;;;;;;5007418;28;20726;-74
2023/03/16 01:51:41;;;;;;;14.00;10.57;;;0.60;99.90;;;;;;5022325;28;20200;-73
2023/03/16 01:54:13;;;;;;;12.40;10.30;;;0.50;99.90;;;;;;5024026;28;20215;-73
2023/03/16 01:57:11;;;;;;;11.37;9.27;;;0.60;99.90;;;;;;5019682;28;20181;-73
2023/03/16 01:59:41;;;;;;;13.37;10.10;;;0.70;99.90;;;;;;5012798;28;20196;-73
2023/03/16 02:02:10;;;;;;;13.97;9.63;;;0.70;99.90;;;;;;5019404;28;20184;-74
2023/03/16 02:04:54;;;;;;;11.77;8.17;;;0.60;99.90;;;;;;5015692;28;20559;-74
2023/03/16 02:07:23;;;;;;;11.67;8.90;;;0.70;99.90;;;;;;5024568;28;20190;-73
2023/03/16 02:09:52;;;;;;;9.90;8.33;;;0.80;99.90;;;;;;5014691;28;20599;-73
2023/03/16 02:12:18;;;;;;;9.07;7.80;;;0.80;99.90;;;;;;5024166;28;20282;-73
2023/03/16 02:14:46;;;;;;;12.10;9.30;;;0.90;99.90;;;;;;5019443;28;20183;-73
2023/03/16 02:17:15;;;;;;;11.97;9.50;;;0.90;99.90;;;;;;5025417;28;20211;-73
2023/03/16 02:20:11;;;;;;;11.37;8.70;;;0.80;99.90;;;;;;5022782;28;20225;-73
2023/03/16 02:22:41;;;;;;;14.37;9.67;;;0.70;99.90;;;;;;5020736;28;20193;-74
2023/03/16 02:25:07;;;;;;;12.53;9.13;;;0.80;99.90;;;;;;5025927;28;20184;-73
2023/03/16 02:28:18;;;;;;;12.50;10.07;;;0.70;99.90;;;;;;5024678;28;20191;-74
2023/03/16 02:30:45;;;;;;;13.47;9.20;;;0.50;99.90;;;;;;4998740;28;20205;-74
2023/03/16 02:33:12;;;;;;;13.43;9.90;;;0.40;99.90;;;;;;5001195;28;20572;-74
2023/03/16 02:35:37;;;;;;;16.33;10.40;;;0.50;99.90;;;;;;5011993;28;20200;-74
2023/03/16 02:38:03;;;;;;;18.53;10.80;;;0.50;99.90;;;;;;5024075;28;20770;-75
2023/03/16 02:40:32;;;;;;;15.57;10.70;;;0.40;99.90;;;;;;5026219;28;20294;-74
2023/03/16 02:43:11;;;;;;;15.43;10.43;;;0.40;99.90;;;;;;5028202;28;20196;-74
2023/03/16 02:45:44;;;;;;;14.13;10.27;;;0.50;99.90;;;;;;5030289;28;20188;-74
2023/03/16 02:48:15;;;;;;;13.53;9.87;;;0.50;99.90;;;;;;5017799;28;20602;-74
2023/03/16 02:50:50;;;;;;;15.37;9.47;;;0.60;99.90;;;;;;5024895;28;20204;-74
2023/03/16 02:53:16;;;;;;;23.00;10.77;;;0.60;99.90;;;;;;5027429;28;20829;-74
2023/03/16 02:55:41;;;;;;;14.07;10.20;;;0.60;99.90;;;;;;5021510;28;20185;-74
2023/03/16 02:58:07;;;;;;;13.40;10.13;;;0.60;99.90;;;;;;5022790;28;20191;-74
2023/03/16 03:00:33;;;;;;;13.27;9.87;;;0.60;99.90;;;;;;5021810;28;20200;-74
2023/03/16 03:02:58;;;;;;;13.80;10.43;;;0.70;99.90;;;;;;5027950;28;20708;-74
2023/03/16 03:05:24;;;;;;;14.57;10.57;;;0.70;99.90;;;;;;5021948;28;20238;-74
2023/03/16 03:07:50;;;;;;;15.37;9.77;;;0.60;99.90;;;;;;5028189;28;20192;-74
2023/03/16 03:10:15;;;;;;;14.87;8.60;;;0.50;99.90;;;;;;5030157;28;20205;-73
2023/03/16 03:12:41;;;;;;;25.80;8.80;;;0.50;99.90;;;;;;5026989;28;20213;-73
2023/03/16 03:15:07;;;;;;;14.57;9.67;;;0.50;99.90;;;;;;5029842;28;20208;-74
2023/03/16 03:17:33;;;;;;;34.10;11.77;;;0.40;99.90;;;;;;5024841;28;20211;-74
2023/03/16 03:20:05;;;;;;;14.13;9.30;;;0.30;99.90;;;;;;5022328;28;20683;-73
2023/03/16 03:22:30;;;;;;;11.57;9.20;;;0.20;99.90;;;;;;5026743;28;20183;-75
2023/03/16 03:24:56;;;;;;;14.50;10.17;;;0.30;99.90;;;;;;5024094;28;20250;-74
2023/03/16 03:27:22;;;;;;;19.03;9.13;;;0.30;99.90;;;;;;5030217;28;20190;-73
2023/03/16 03:29:48;;;;;;;34.20;10.70;;;0.20;99.90;;;;;;5019943;28;20208;-73
2023/03/16 03:32:13;;;;;;;23.03;10.87;;;0.20;99.90;;;;;;5019398;28;20209;-74
2023/03/16 03:34:41;;;;;;;29.67;10.10;;;0.10;99.90;;;;;;5027753;28;20271;-73
2023/03/16 03:37:06;;;;;;;12.33;8.90;;;0.00;99.90;;;;;;5026725;28;20632;-74
2023/03/16 03:39:32;;;;;;;12.00;8.60;;;0.00;99.90;;;;;;5021127;28;20184;-73
2023/03/16 03:41:57;;;;;;;13.17;9.87;;;0.00;99.90;;;;;;5026232;28;20183;-75
2023/03/16 03:44:23;;;;;;;12.00;8.80;;;0.10;99.90;;;;;;5021392;28;20193;-73
2023/03/16 03:46:50;;;;;;;11.00;8.63;;;0.10;99.90;;;;;;5033873;28;20184;-73
2023/03/16 03:49:16;;;;;;;10.50;7.80;;;0.30;99.90;;;;;;5026373;28;20204;-73
2023/03/16 03:51:42;;;;;;;10.53;8.27;;;0.40;99.90;;;;;;5022100;28;20251;-73
2023/03/16 03:54:08;;;;;;;9.83;7.90;;;0.50;99.90;;;;;;5021249;28;20184;-73
2023/03/16 03:56:33;;;;;;;11.00;8.03;;;0.50;99.90;;;;;;5028839;28;20274;-73
2023/03/16 03:58:59;;;;;;;9.87;7.73;;;0.60;99.90;;;;;;5021737;28;20659;-73
2023/03/16 04:01:25;;;;;;;9.83;8.00;;;0.60;99.90;;;;;;5027795;28;20249;-73
2023/03/16 04:03:50;;;;;;;10.20;8.47;;;0.40;99.90;;;;;;5027063;28;20185;-73
2023/03/16 04:06:16;;;;;;;10.57;7.40;;;0.40;99.90;;;;;;5018215;28;20360;-73
2023/03/16 04:08:41;;;;;;;8.53;7.43;;;0.40;99.90;;;;;;5026458;28;23404;-73
2023/03/16 04:11:07;;;;;;;10.17;8.47;;;0.50;99.90;;;;;;5025237;28;20207;-73
2023/03/16 04:13:33;;;;;;;10.87;8.37;;;0.40;99.90;;;;;;5016659;28;20220;-73
2023/03/16 04:16:01;;;;;;;11.77;8.10;;;0.30;99.90;;;;;;5024635;28;20187;-75
2023/03/16 04:18:27;;;;;;;8.53;7.47;;;0.30;99.90;;;;;;5027513;28;20199;-75
2023/03/16 04:20:53;;;;;;;10.33;7.97;;;0.20;99.90;;;;;;5016777;28;20496;-73
2023/03/16 04:23:20;;;;;;;9.27;7.83;;;0.20;99.90;;;;;;5021787;28;20203;-73
2023/03/16 04:25:46;;;;;;;10.87;8.23;;;0.20;99.90;;;;;;5029030;28;20260;-73
2023/03/16 04:28:12;;;;;;;11.07;8.30;;;0.10;99.90;;;;;;5021819;28;20589;-73
2023/03/16 04:30:38;;;;;;;12.57;7.53;;;0.20;99.90;;;;;;5026585;28;20200;-75
2023/03/16 04:33:03;;;;;;;13.00;7.83;;;0.20;99.90;;;;;;5031137;28;20250;-73
2023/03/16 04:35:30;;;;;;;10.23;7.83;;;0.20;99.90;;;;;;5031592;28;20180;-74
2023/03/16 04:37:56;;;;;;;10.17;7.97;;;0.10;99.90;;;;;;5017992;28;20555;-79
2023/03/16 04:40:22;;;;;;;9.77;8.13;;;0.00;99.90;;;;;;5013276;28;20224;-74
2023/03/16 04:42:48;;;;;;;9.20;8.20;;;-0.10;99.90;;;;;;5022627;28;20185;-74
2023/03/16 04:45:16;;;;;;;9.17;7.77;;;-0.10;99.90;;;;;;5028233;28;20196;-73
2023/03/16 04:47:41;;;;;;;7.63;6.73;;;-0.10;99.90;;;;;;5022646;28;20176;-74
2023/03/16 04:50:09;;;;;;;12.57;8.90;;;-0.10;99.90;;;;;;5017821;28;20217;-73
2023/03/16 04:52:34;;;;;;;10.83;8.67;;;-0.10;99.90;;;;;;5020368;28;20326;-73
2023/03/16 04:55:00;;;;;;;10.90;8.63;;;-0.20;99.90;;;;;;5020211;28;20306;-73
2023/03/16 04:57:25;;;;;;;9.70;8.20;;;-0.10;99.90;;;;;;5025214;28;20204;-72
2023/03/16 04:59:51;;;;;;;10.73;8.70;;;0.00;99.90;;;;;;5022788;28;20710;-72
2023/03/16 05:02:18;;;;;;;11.00;8.17;;;-0.10;99.90;;;;;;5032760;28;20230;-74
2023/03/16 05:04:44;;;;;;;8.87;7.87;;;-0.10;99.90;;;;;;5028506;28;20188;-73
2023/03/16 05:07:10;;;;;;;9.93;7.97;;;-0.20;99.90;;;;;;5024441;28;20196;-72
2023/03/16 05:09:36;;;;;;;13.67;9.30;;;-0.10;99.90;;;;;;5028745;28;20565;-74
2023/03/16 05:12:01;;;;;;;10.97;7.97;;;-0.10;99.90;;;;;;5016288;28;20223;-73
2023/03/16 05:14:27;;;;;;;8.90;7.70;;;0.00;99.90;;;;;;5024876;28;20573;-73
2023/03/16 05:16:52;;;;;;;9.27;7.90;;;0.10;99.90;;;;;;5022257;28;20188;-73
2023/03/16 05:19:18;;;;;;;8.90;7.23;;;0.10;99.90;;;;;;5025059;28;20206;-74
2023/03/16 05:21:44;;;;;;;10.37;7.47;;;0.30;99.90;;;;;;5016330;28;20209;-74
2023/03/16 05:24:11;;;;;;;10.10;8.70;;;0.40;99.90;;;;;;5025203;28;20223;-74
2023/03/16 05:26:37;;;;;;;9.73;8.00;;;0.30;99.90;;;;;;5030263;28;20195;-73
2023/03/16 05:29:03;;;;;;;9.40;7.77;;;0.30;99.90;;;;;;5022052;28;20198;-75
2023/03/16 05:31:31;;;;;;;9.93;7.77;;;0.30;99.90;;;;;;5021571;28;20208;-74
2023/03/16 05:33:57;;;;;;;8.80;7.30;;;0.40;99.90;;;;;;5023858;28;20208;-73
2023/03/16 05:36:23;;;;;;;9.23;6.77;;;0.40;99.90;;;;;;5022902;28;20184;-75
2023/03/16 05:38:49;;;;;;;8.73;6.77;;;0.50;99.90;;;;;;5019768;28;20184;-74
2023/03/16 05:41:17;;;;;;;9.17;7.60;;;0.50;99.90;;;;;;5021935;28;20236;-74
2023/03/16 05:43:45;;;;;;;8.50;7.47;;;0.50;99.90;;;;;;5023573;28;20196;-74
2023/03/16 05:46:12;;;;;;;8.43;6.90;;;0.30;99.90;;;;;;5017006;28;20193;-76
2023/03/16 05:48:38;;;;;;;8.53;7.27;;;0.40;99.90;;;;;;5021568;28;20235;-76
2023/03/16 05:51:04;;;;;;;9.57;7.70;;;0.40;99.90;;;;;;5019255;28;20208;-72
2023/03/16 05:53:34;;;;;;;10.13;7.23;;;0.50;99.90;;;;;;5025962;28;20689;-72
2023/03/16 05:56:00;;;;;;;8.77;7.10;;;0.40;99.90;;;;;;5016874;28;20173;-73
2023/03/16 05:58:26;;;;;;;9.80;7.67;;;0.50;99.90;;;;;;5011468;28;20653;-72
2023/03/16 06:00:54;;;;;;;8.83;6.90;;;0.60;99.90;;;;;;5011497;28;20205;-72
2023/03/16 06:03:20;;;;;;;11.23;8.60;;;0.70;99.90;;;;;;5007752;28;20651;-72
2023/03/16 06:05:46;;;;;;;9.73;8.17;;;0.70;99.90;;;;;;5005077;28;20193;-73
2023/03/16 06:08:11;;;;;;;11.17;8.43;;;0.70;99.90;;;;;;5008265;28;20290;-73
2023/03/16 06:10:37;;;;;;;10.13;8.03;;;0.80;99.90;;;;;;5008227;28;21047;-73
2023/03/16 06:13:03;;;;;;;10.50;8.50;;;0.90;99.90;;;;;;5007080;28;20208;-73
2023/03/16 06:15:29;;;;;;;12.37;8.80;;;1.00;99.90;;;;;;5008771;28;20189;-73
2023/03/16 06:17:55;;;;;;;9.20;7.50;;;1.10;99.90;;;;;;5021350;28;20237;-72
2023/03/16 06:20:21;;;;;;;10.07;7.90;;;1.20;99.90;;;;;;5020007;28;20579;-71
2023/03/16 06:22:47;;;;;;;9.07;7.83;;;1.30;99.90;;;;;;5019967;28;20246;-72
2023/03/16 06:25:14;;;;;;;12.70;8.97;;;1.40;99.90;;;;;;5023955;28;20193;-72
2023/03/16 06:27:40;;;;;;;11.13;9.30;;;1.50;99.90;;;;;;5019806;28;20195;-73
2023/03/16 06:30:08;;;;;;;12.93;10.30;;;1.60;99.90;;;;;;5021997;28;20205;-73
2023/03/16 06:32:34;;;;;;;12.60;9.57;;;1.60;99.90;;;;;;5014770;28;20204;-73
2023/03/16 06:35:02;;;;;;;11.90;10.07;;;1.50;99.90;;;;;;5024009;28;20192;-72
2023/03/16 06:37:28;;;;;;;11.03;9.40;;;1.60;99.90;;;;;;5023303;28;20173;-75
2023/03/16 06:39:54;;;;;;;13.80;10.30;;;1.70;99.90;;;;;;5013775;28;22082;-74
2023/03/16 06:42:20;;;;;;;12.85;9.90;;;1.70;99.90;;;;;;5021592;28;20196;-72
2023/03/16 06:44:46;;;;;;;11.50;9.57;;;1.80;99.90;;;;;;5016763;28;20235;-72
2023/03/16 06:47:12;;;;;;;10.77;8.30;;;1.70;99.90;;;;;;5021353;28;20190;-73
2023/03/16 06:49:38;;;;;;;10.13;8.77;;;1.80;99.90;;;;;;5022968;28;20390;-74
2023/03/16 06:52:03;;;;;;;8.60;7.40;;;1.80;99.90;;;;;;5016263;28;20219;-73
2023/03/16 06:54:31;;;;;;;8.77;7.35;;;2.00;99.90;;;;;;5027436;28;20228;-73
2023/03/16 06:56:57;;;;;;;8.52;7.53;;;2.00;99.90;;;;;;5021203;28;20230;-75
2023/03/16 06:59:23;;;;;;;9.15;8.23;;;2.00;99.90;;;;;;5019076;28;20212;-73
2023/03/16 07:01:49;;;;;;;9.07;8.13;;;1.90;99.90;;;;;;5014116;28;20235;-73
2023/03/16 07:04:15;;;;;;;9.70;8.33;;;1.90;99.90;;;;;;5021897;28;20716;-74
2023/03/16 07:06:40;;;;;;;11.87;9.07;;;1.90;99.90;;;;;;5023858;28;20259;-73
2023/03/16 07:09:06;;;;;;;12.25;8.85;;;2.00;99.90;;;;;;5023926;28;20267;-73
2023/03/16 07:11:32;;;;;;;11.20;7.80;;;1.90;99.90;;;;;;5020886;28;20214;-75
2023/03/16 07:13:57;;;;;;;11.02;8.98;;;2.00;99.90;;;;;;5028550;28;20680;-74
2023/03/16 07:16:23;;;;;;;10.48;8.73;;;2.10;99.90;;;;;;5031734;28;20215;-77
2023/03/16 07:18:49;;;;;;;9.63;8.10;;;2.30;99.90;;;;;;5031508;28;20188;-74
2023/03/16 07:21:15;;;;;;;10.63;7.85;;;2.50;99.90;;;;;;5033009;28;20223;-79
2023/03/16 07:23:40;;;;;;;11.20;8.95;;;2.50;99.90;;;;;;5023632;28;20220;-75
2023/03/16 07:26:07;;;;;;;9.63;7.93;;;2.70;99.90;;;;;;5028360;28;20541;-76
2023/03/16 07:28:33;;;;;;;9.32;8.35;;;2.80;99.90;;;;;;5029972;28;20223;-75
2023/03/16 07:30:59;;;;;;;9.93;7.47;;;2.90;99.90;;;;;;5023477;28;20216;-75
2023/03/16 07:33:24;;;;;;;8.20;7.40;;;3.10;99.90;;;;;;5036757;28;20204;-76
2023/03/16 07:35:50;;;;;;;8.30;7.45;;;3.10;99.90;;;;;;5030262;28;20175;-75
2023/03/16 07:38:16;;;;;;;8.38;7.20;;;3.20;99.90;;;;;;5030363;28;20180;-75
2023/03/16 07:40:42;;;;;;;7.28;6.60;;;3.20;99.90;;;;;;5029504;28;20201;-75
2023/03/16 07:43:07;;;;;;;8.10;6.97;;;3.30;99.90;;;;;;5025494;28;20177;-75
2023/03/16 07:45:33;;;;;;;7.70;7.00;;;3.20;99.90;;;;;;5027151;28;20189;-75
2023/03/16 07:47:59;;;;;;;7.00;6.40;;;3.20;99.90;;;;;;5026659;28;20636;-75
2023/03/16 07:50:24;;;;;;;9.95;7.43;;;3.30;99.90;;;;;;5020796;28;20638;-74
2023/03/16 07:52:50;;;;;;;7.38;6.78;;;3.40;99.90;;;;;;5019679;28;20200;-74
2023/03/16 07:55:16;;;;;;;8.38;7.05;;;3.60;99.90;;;;;;5026946;28;20186;-75
2023/03/16 07:57:46;;;;;;;7.75;6.80;;;3.80;99.90;;;;;;5027574;28;20536;-74
2023/03/16 08:00:12;;;;;;;7.75;6.90;;;4.00;99.90;;;;;;5025493;28;20682;-75
2023/03/16 08:02:39;;;;;;;7.95;7.07;;;4.10;99.90;;;;;;5036171;28;20646;-75
2023/03/16 08:05:04;;;;;;;7.47;6.78;;;4.30;99.90;;;;;;5028790;28;20180;-75
2023/03/16 08:07:30;;;;;;;7.15;6.47;;;4.30;99.90;;;;;;5032959;28;20183;-75
2023/03/16 08:09:56;;;;;;;7.55;6.85;;;4.40;99.90;;;;;;5025660;28;20200;-76
2023/03/16 08:12:22;;;;;;;8.30;7.38;;;4.50;99.90;;;;;;5028538;28;20203;-75
2023/03/16 08:14:47;;;;;;;6.80;6.20;;;4.50;99.90;;;;;;5025104;28;20664;-75
2023/03/16 08:17:13;;;;;;;7.13;6.50;;;4.40;99.90;;;;;;5031947;28;20185;-75
2023/03/16 08:19:39;;;;;;;7.40;6.75;;;4.20;99.90;;;;;;5035392;28;20652;-75
2023/03/16 08:22:05;;;;;;;7.43;6.72;;;4.30;99.90;;;;;;5033245;28;20189;-75
2023/03/16 08:24:31;;;;;;;9.25;6.85;;;4.60;99.90;;;;;;5030516;28;20184;-75
2023/03/16 08:26:58;;;;;;;7.10;6.40;;;4.70;99.90;;;;;;5028946;28;20238;-76
2023/03/16 08:29:25;;;;;;;6.97;6.28;;;4.70;99.90;;;;;;5026049;28;20633;-75
2023/03/16 08:31:55;;;;;;;7.03;6.43;;;5.00;99.90;;;;;;5025011;28;20660;-75
2023/03/16 08:34:21;;;;;;;6.65;6.15;;;5.10;99.90;;;;;;5034729;28;20181;-74
2023/03/16 08:36:47;;;;;;;6.63;6.03;;;5.00;99.90;;;;;;5026951;28;20176;-76
2023/03/16 08:39:12;;;;;;;6.78;6.10;;;5.00;99.90;;;;;;5023951;28;20542;-79
2023/03/16 08:41:39;;;;;;;7.38;6.68;;;5.30;99.90;;;;;;5021566;28;20208;-76
2023/03/16 08:44:06;;;;;;;7.22;6.53;;;5.40;99.90;;;;;;5030982;28;20625;-76
2023/03/16 08:46:32;;;;;;;6.38;5.78;;;5.70;99.90;;;;;;5028114;28;20218;-73
2023/03/16 08:48:58;;;;;;;6.97;6.38;;;5.90;99.90;;;;;;5018457;28;20195;-75
2023/03/16 08:51:24;;;;;;;6.90;6.30;;;6.50;99.90;;;;;;5028154;28;20204;-76
2023/03/16 08:53:49;;;;;;;6.55;6.05;;;7.00;99.90;;;;;;5023807;28;20220;-76
2023/03/16 08:56:15;;;;;;;7.40;6.80;;;7.20;99.90;;;;;;5031969;28;20185;-76
2023/03/16 08:58:44;;;;;;;6.03;5.63;;;7.50;99.90;;;;;;5023283;28;20272;-74
2023/03/16 09:01:13;;;;;;;6.50;5.60;;;7.50;99.90;;;;;;5023233;28;20182;-75
2023/03/16 09:03:44;;;;;;;6.53;5.93;;;7.30;99.90;;;;;;5030473;28;20191;-75
2023/03/16 09:06:12;;;;;;;6.05;5.55;;;7.50;99.90;;;;;;5023625;28;20695;-75
2023/03/16 09:08:38;;;;;;;6.40;5.85;;;8.30;99.90;;;;;;5031149;28;20223;-75
2023/03/16 09:11:09;;;;;;;6.03;5.53;;;8.70;99.90;;;;;;5026812;28;20210;-75
2023/03/16 09:13:38;;;;;;;6.15;5.65;;;8.40;99.90;;;;;;5030746;28;20671;-77
2023/03/16 09:16:04;;;;;;;5.82;5.35;;;7.80;99.90;;;;;;5029172;28;20663;-76
2023/03/16 09:18:31;;;;;;;7.47;5.68;;;7.30;99.90;;;;;;5034673;28;20192;-75
2023/03/16 09:20:58;;;;;;;5.95;5.45;;;7.00;99.90;;;;;;5021687;28;20583;-75
2023/03/16 09:23:25;;;;;;;7.20;6.50;;;7.20;99.90;;;;;;5031539;28;20596;-76
2023/03/16 09:25:52;;;;;;;6.80;6.22;;;7.00;99.90;;;;;;5026012;28;20187;-75
2023/03/16 09:28:18;;;;;;;6.38;5.80;;;7.10;99.90;;;;;;5023937;28;20787;-75
2023/03/16 09:30:43;;;;;;;7.43;6.72;;;7.30;99.90;;;;;;5020652;28;20204;-75
2023/03/16 09:33:09;;;;;;;7.35;6.65;;;7.40;99.90;;;;;;5023190;28;20201;-76
2023/03/16 09:35:36;;;;;;;8.80;7.13;;;7.70;99.90;;;;;;5023106;28;20189;-74
2023/03/16 09:38:02;;;;;;;6.78;6.18;;;8.00;99.90;;;;;;5025991;28;20200;-75
2023/03/16 09:40:29;;;;;;;6.63;6.00;;;8.50;99.90;;;;;;5027049;28;20200;-75
2023/03/16 09:43:01;;;;;;;6.30;5.88;;;8.70;99.90;;;;;;5034384;28;20639;-74
2023/03/16 09:45:45;;;;;;;6.15;5.65;;;9.10;99.90;;;;;;5032626;28;20276;-77
2023/03/16 09:48:11;;;;;;;6.40;5.80;;;9.30;99.90;;;;;;5027581;28;20207;-74
2023/03/16 09:50:39;;;;;;;6.85;6.25;;;10.10;99.90;;;;;;5029195;28;20205;-75
2023/03/16 09:53:21;;;;;;;6.13;5.60;;;10.10;98.70;;;;;;5028702;28;20290;-75
2023/03/16 09:55:52;;;;;;;5.93;5.35;;;9.40;99.90;;;;;;5025507;28;20184;-74
2023/03/16 09:58:20;;;;;;;6.00;5.38;;;9.40;99.90;;;;;;5029091;28;20180;-74
2023/03/16 10:00:54;;;;;;;6.43;5.85;;;9.40;99.90;;;;;;5024540;28;20198;-75
2023/03/16 10:04:11;;;;;;;7.10;6.50;;;9.60;99.90;;;;;;5028638;28;20282;-75
2023/03/16 10:07:01;;;;;;;6.38;5.78;;;9.00;99.90;;;;;;4992748;28;20185;-75
2023/03/16 10:09:41;;;;;;;6.63;6.03;;;8.50;99.90;;;;;;5032205;28;20172;-76
2023/03/16 10:12:08;;;;;;;6.75;6.15;;;8.90;99.90;;;;;;5032420;28;20566;-75
2023/03/16 10:15:15;;;;;;;6.68;5.82;;;9.10;99.90;;;;;;5032137;28;20222;-75
2023/03/16 10:17:46;;;;;;;6.97;6.43;;;9.40;99.90;;;;;;5026211;28;20201;-76
2023/03/16 10:20:21;;;;;;;6.85;6.15;;;9.10;99.90;;;;;;5034702;28;20212;-76
2023/03/16 10:22:49;;;;;;;7.25;6.55;;;9.20;99.90;;;;;;5034170;28;20184;-77
2023/03/16 10:25:29;;;;;;;7.75;7.05;;;9.50;99.90;;;;;;5029424;28;20188;-77
2023/03/16 10:27:56;;;;;;;6.90;6.30;;;10.00;99.30;;;;;;5022365;28;20180;-75
2023/03/16 10:30:27;;;;;;;7.53;6.80;;;10.30;98.30;;;;;;5034813;28;20703;-75
2023/03/16 10:32:54;;;;;;;7.43;6.75;;;10.70;97.70;;;;;;5033268;28;20241;-75
2023/03/16 10:35:58;;;;;;;6.65;6.15;;;11.00;97.20;;;;;;5033641;28;20188;-74
2023/03/16 10:38:38;;;;;;;8.05;7.35;;;11.70;96.10;;;;;;5035010;28;20212;-75
2023/03/16 10:41:16;;;;;;;6.90;6.30;;;12.20;93.30;;;;;;5028026;28;20287;-76
2023/03/16 10:43:43;;;;;;;6.45;5.95;;;12.10;93.20;;;;;;5024597;28;20182;-77
2023/03/16 10:46:10;;;;;;;7.90;7.25;;;12.60;92.90;;;;;;5026241;28;20181;-76
2023/03/16 10:48:37;;;;;;;7.72;7.13;;;13.00;90.90;;;;;;5022134;28;20189;-76
2023/03/16 10:51:09;;;;;;;7.30;6.70;;;13.30;90.20;;;;;;5024877;28;20232;-76
2023/03/16 10:53:37;;;;;;;7.80;7.20;;;12.80;90.60;;;;;;5027399;28;20207;-75
2023/03/16 10:56:21;;;;;;;7.45;6.82;;;13.40;89.70;;;;;;5024974;28;20275;-77
2023/03/16 10:58:47;;;;;;;7.97;7.38;;;14.20;86.80;;;;;;5024199;28;20188;-75
2023/03/16 11:01:30;;;;;;;7.45;6.85;;;14.50;82.20;;;;;;5031444;28;20469;-75
2023/03/16 11:03:57;;;;;;;7.85;7.20;;;14.30;82.80;;;;;;5025702;28;20231;-75
2023/03/16 11:06:31;;;;;;;8.98;8.15;;;14.80;80.10;;;;;;5023122;28;20599;-75
2023/03/16 11:09:13;;;;;;;8.65;7.85;;;14.70;80.00;;;;;;5017364;28;20188;-76
2023/03/16 11:11:39;;;;;;;8.57;7.88;;;15.40;79.80;;;;;;5024510;28;20231;-80
2023/03/16 11:14:12;;;;;;;8.68;7.93;;;15.80;77.50;;;;;;5019667;28;20710;-75
2023/03/16 11:16:53;;;;;;;8.32;7.63;;;16.50;75.50;;;;;;5029519;28;20716;-77
2023/03/16 11:19:28;;;;;;;8.10;7.30;;;17.60;71.00;;;;;;5025547;28;20247;-75
2023/03/16 11:22:18;;;;;;;7.93;7.32;;;19.00;68.60;;;;;;5024046;28;20647;-75
2023/03/16 11:25:04;;;;;;;7.30;6.80;;;20.20;61.40;;;;;;5022181;28;20674;-77
2023/03/16 11:27:52;;;;;;;7.70;7.10;;;21.30;59.00;;;;;;5030553;28;20498;-78
2023/03/16 11:30:49;;;;;;;7.03;6.38;;;23.00;55.50;;;;;;5029946;28;20200;-81
2023/03/16 11:33:15;;;;;;;6.75;6.07;;;23.70;52.40;;;;;;5019040;28;20721;-76
2023/03/16 11:36:43;;;;;;;7.03;6.53;;;25.40;49.60;;;;;;5020569;28;20554;-75
2023/03/16 11:39:31;;;;;;;6.90;6.50;;;25.60;47.50;;;;;;4945957;28;20585;-75
2023/03/16 11:42:29;;;;;;;7.57;7.10;;;26.30;45.20;;;;;;5016898;28;20189;-75
2023/03/16 11:45:25;;;;;;;6.55;6.05;;;26.60;44.20;;;;;;5022442;28;20181;-75
2023/03/16 11:48:06;;;;;;;6.47;6.07;;;25.10;45.80;;;;;;5020092;28;20181;-75
2023/03/16 11:50:50;;;;;;;6.22;5.82;;;24.20;46.00;;;;;;5021623;28;20230;-75
2023/03/16 11:53:30;;;;;;;6.80;6.20;;;24.60;46.90;;;;;;5034708;28;20196;-76
2023/03/16 11:56:14;;;;;;;6.60;6.10;;;25.30;46.20;;;;;;5021479;28;20180;-75
2023/03/16 11:58:49;;;;;;;5.82;5.38;;;25.50;45.40;;;;;;5018988;28;20193;-75
2023/03/16 12:01:30;;;;;;;5.40;5.10;;;26.20;44.40;;;;;;5025222;28;20278;-77
2023/03/16 12:04:26;;;;;;;5.20;4.90;;;27.50;43.40;;;;;;5024211;28;20188;-77
2023/03/16 12:07:20;;;;;;;5.53;5.18;;;28.30;41.40;;;;;;5024758;28;20203;-77
2023/03/16 12:09:58;;;;;;;5.32;4.93;;;28.40;40.20;;;;;;5027939;28;20675;-74
2023/03/16 12:12:42;;;;;;;5.07;4.78;;;29.10;41.30;;;;;;5029469;28;20203;-74
2023/03/16 12:15:23;;;;;;;5.45;5.00;;;29.00;38.80;;;;;;5024843;28;20184;-75
2023/03/16 12:17:51;;;;;;;5.80;5.30;;;28.90;40.30;;;;;;5024933;28;20521;-75
2023/03/16 12:20:28;;;;;;;5.35;5.05;;;29.70;39.00;;;;;;5025444;28;20227;-74
2023/03/16 12:23:08;;;;;;;5.38;5.07;;;30.80;38.40;;;;;;5021078;28;21099;-75
2023/03/16 12:25:38;;;;;;;4.72;4.43;;;31.10;36.90;;;;;;5026801;28;20225;-74
2023/03/16 12:28:12;;;;;;;4.80;4.50;;;30.90;36.30;;;;;;5021744;28;20192;-75
2023/03/16 12:30:47;;;;;;;5.20;4.80;;;30.90;36.30;;;;;;5024559;28;20704;-74
2023/03/16 12:33:34;;;;;;;4.95;4.65;;;30.70;37.00;;;;;;5024494;28;20613;-74
2023/03/16 12:36:18;;;;;;;5.22;4.80;;;30.60;36.10;;;;;;5028829;28;20209;-75
2023/03/16 12:38:52;;;;;;;5.80;5.38;;;29.00;37.20;;;;;;5024241;28;20184;-74
2023/03/16 12:41:27;;;;;;;4.80;4.50;;;28.10;38.60;;;;;;5023599;28;20582;-75
2023/03/16 12:44:02;;;;;;;5.20;4.68;;;27.80;38.70;;;;;;5024613;28;20183;-75
2023/03/16 12:47:03;;;;;;;5.30;4.88;;;28.40;39.10;;;;;;5021463;28;20659;-75
2023/03/16 12:49:32;;;;;;;5.10;4.80;;;28.80;38.20;;;;;;5019698;28;20683;-75
2023/03/16 12:52:00;;;;;;;5.22;4.40;;;29.30;37.60;;;;;;5018627;28;20276;-75
2023/03/16 12:54:26;;;;;;;4.40;4.10;;;28.70;37.40;;;;;;5026264;28;20273;-75
2023/03/16 12:57:01;;;;;;;4.78;4.47;;;26.70;38.90;;;;;;5022318;28;20230;-75
2023/03/16 12:59:37;;;;;;;4.95;4.55;;;25.30;40.90;;;;;;5027905;28;20262;-75
2023/03/16 13:02:05;;;;;;;5.55;4.88;;;25.50;40.40;;;;;;5025894;28;20741;-74
2023/03/16 13:04:34;;;;;;;10.63;4.47;;;26.30;40.10;;;;;;5019342;28;20718;-75